createdAt,value
2023-04-27T04:49:51.345Z,8.33
2023-04-27T04:50:51.287Z,8.30
2023-04-27T04:51:51.268Z,8.29
2023-04-27T04:52:51.259Z,8.26
2023-04-27T04:53:51.261Z,8.20
2023-04-27T04:54:51.249Z,8.23
2023-04-27T04:55:51.232Z,8.26
2023-04-27T04:56:51.237Z,8.25
2023-04-27T04:57:51.201Z,8.28
2023-04-27T04:58:51.197Z,8.23
2023-04-27T04:59:51.215Z,8.23
2023-04-27T05:00:56.193Z,8.34
2023-04-27T05:01:51.212Z,8.33
2023-04-27T05:02:51.256Z,8.36
2023-04-27T05:03:51.237Z,8.30
2023-04-27T05:04:51.176Z,8.36
2023-04-27T05:05:51.133Z,8.43
2023-04-27T05:06:51.104Z,8.40
2023-04-27T05:07:51.089Z,8.36
2023-04-27T05:08:51.089Z,8.50
2023-04-27T05:09:51.073Z,8.41
2023-04-27T05:10:51.085Z,8.40
2023-04-27T05:11:56.069Z,8.38
2023-04-27T05:12:51.061Z,8.45
2023-04-27T05:13:51.033Z,8.50
2023-04-27T05:14:51.012Z,8.56
2023-04-27T05:15:51.014Z,8.63
2023-04-27T05:16:51.003Z,8.52
2023-04-27T05:17:51.005Z,8.59
2023-04-27T05:18:50.978Z,8.52
2023-04-27T05:19:50.958Z,8.68
2023-04-27T05:20:50.959Z,8.61
2023-04-27T05:21:50.962Z,8.65
2023-04-27T05:22:55.981Z,8.71
2023-04-27T05:23:50.917Z,8.63
2023-04-27T05:24:50.917Z,8.70
2023-04-27T05:25:50.896Z,8.71
2023-04-27T05:26:50.881Z,8.74
2023-04-27T05:27:50.873Z,8.79
2023-04-27T05:28:50.904Z,8.70
2023-04-27T05:29:50.840Z,8.84
2023-04-27T05:30:50.841Z,8.91
2023-04-27T05:31:50.848Z,8.94
2023-04-27T05:32:50.859Z,8.92
2023-04-27T05:33:55.828Z,8.92
2023-04-27T05:34:50.806Z,8.96
2023-04-27T05:35:50.778Z,8.94
2023-04-27T05:36:50.767Z,9.01
2023-04-27T05:37:50.784Z,9.02
2023-04-27T05:38:50.763Z,9.05
2023-04-27T05:39:50.736Z,9.08
2023-04-27T05:40:50.748Z,9.02
2023-04-27T05:41:50.713Z,9.10
2023-04-27T05:42:50.701Z,9.10
2023-04-27T05:43:50.700Z,9.13
2023-04-27T05:44:55.700Z,9.15
2023-04-27T05:45:50.713Z,9.15
2023-04-27T05:46:50.673Z,9.20
2023-04-27T05:47:50.745Z,9.23
2023-04-27T05:48:50.676Z,9.31
2023-04-27T05:49:50.622Z,9.31
2023-04-27T05:50:50.620Z,9.26
2023-04-27T05:51:50.609Z,9.31
2023-04-27T05:52:50.603Z,9.43
2023-04-27T05:53:50.617Z,9.46
2023-04-27T05:54:50.583Z,9.47
2023-04-27T05:55:55.580Z,9.47
2023-04-27T05:56:50.549Z,9.51
2023-04-27T05:57:57.355Z,9.50
2023-04-27T05:58:50.595Z,9.53
2023-04-27T05:59:50.513Z,9.60
2023-04-27T06:00:50.516Z,9.66
2023-04-27T06:01:50.522Z,9.64
2023-04-27T06:02:50.594Z,9.71
2023-04-27T06:03:50.626Z,9.74
2023-04-27T06:04:50.484Z,9.75
2023-04-27T06:05:50.445Z,9.75
2023-04-27T06:06:55.457Z,9.76
2023-04-27T06:07:50.426Z,9.87
2023-04-27T06:08:50.423Z,9.96
2023-04-27T06:09:50.420Z,9.90
2023-04-27T06:10:50.406Z,9.96
2023-04-27T06:11:50.377Z,9.90
2023-04-27T06:12:50.368Z,9.99
2023-04-27T06:13:50.366Z,10.01
2023-04-27T06:14:50.348Z,10.07
2023-04-27T06:15:50.375Z,10.12
2023-04-27T06:16:50.345Z,10.11
2023-04-27T06:17:55.369Z,10.14
2023-04-27T06:18:50.311Z,10.20
2023-04-27T06:19:50.291Z,10.36
2023-04-27T06:20:50.285Z,10.36
2023-04-27T06:21:50.270Z,10.42
2023-04-27T06:22:50.290Z,10.34
2023-04-27T06:23:50.260Z,10.38
2023-04-27T06:24:50.248Z,10.38
2023-04-27T06:25:50.259Z,10.44
2023-04-27T06:26:50.223Z,10.48
2023-04-27T06:27:50.209Z,10.53
2023-04-27T06:28:55.247Z,10.55
2023-04-27T06:29:50.188Z,10.51
2023-04-27T06:30:50.170Z,10.45
2023-04-27T06:31:50.197Z,10.34
2023-04-27T06:32:50.186Z,10.44
2023-04-27T06:33:50.145Z,10.44
2023-04-27T06:34:50.141Z,10.36
2023-04-27T06:35:50.272Z,10.44
2023-04-27T06:36:50.098Z,10.42
2023-04-27T06:37:50.094Z,10.40
2023-04-27T06:38:50.092Z,10.34
2023-04-27T06:39:55.095Z,10.36
2023-04-27T06:40:50.074Z,10.40
2023-04-27T06:41:50.076Z,10.51
2023-04-27T06:42:50.062Z,10.55
2023-04-27T06:43:50.029Z,10.47
2023-04-27T06:44:50.064Z,10.52
2023-04-27T06:45:50.036Z,10.59
2023-04-27T06:46:50.029Z,10.59
2023-04-27T06:47:50.020Z,10.56
2023-04-27T06:48:49.972Z,10.63
2023-04-27T06:49:50.105Z,10.68
2023-04-27T06:50:54.964Z,10.60
2023-04-27T06:51:49.939Z,10.73
2023-04-27T06:52:49.944Z,10.74
2023-04-27T06:53:49.925Z,10.79
2023-04-27T06:54:49.900Z,10.73
2023-04-27T06:55:49.899Z,10.79
2023-04-27T06:56:49.873Z,10.85
2023-04-27T06:57:49.883Z,10.86
2023-04-27T06:58:49.861Z,10.97
2023-04-27T06:59:49.875Z,11.00
2023-04-27T07:00:49.829Z,11.04
2023-04-27T07:01:54.872Z,11.03
2023-04-27T07:02:49.894Z,11.17
2023-04-27T07:03:49.904Z,11.19
2023-04-27T07:04:49.845Z,11.29
2023-04-27T07:05:49.805Z,11.22
2023-04-27T07:06:49.767Z,11.29
2023-04-27T07:07:49.756Z,11.37
2023-04-27T07:08:49.740Z,11.55
2023-04-27T07:09:49.734Z,11.61
2023-04-27T07:10:49.723Z,11.67
2023-04-27T07:11:49.735Z,11.76
2023-04-27T07:12:54.890Z,11.72
2023-04-27T07:13:49.687Z,11.62
2023-04-27T07:14:49.691Z,11.76
2023-04-27T07:15:49.707Z,11.76
2023-04-27T07:16:49.652Z,11.80
2023-04-27T07:17:49.689Z,11.72
2023-04-27T07:18:49.649Z,11.91
2023-04-27T07:19:49.926Z,11.96
2023-04-27T07:20:49.606Z,12.01
2023-04-27T07:21:49.596Z,11.79
2023-04-27T07:22:49.586Z,12.09
2023-04-27T07:23:56.115Z,12.09
2023-04-27T07:24:49.570Z,11.98
2023-04-27T07:25:49.550Z,12.04
2023-04-27T07:26:49.548Z,12.10
2023-04-27T07:27:49.526Z,12.02
2023-04-27T07:28:49.543Z,12.02
2023-04-27T07:29:49.529Z,11.96
2023-04-27T07:30:49.501Z,12.13
2023-04-27T07:31:51.920Z,12.13
2023-04-27T07:32:49.525Z,11.94
2023-04-27T07:33:49.461Z,12.04
2023-04-27T07:34:54.647Z,12.12
2023-04-27T07:35:49.454Z,12.10
2023-04-27T07:36:49.428Z,12.27
2023-04-27T07:37:49.442Z,12.34
2023-04-27T07:38:49.406Z,12.49
2023-04-27T07:39:49.399Z,12.50
2023-04-27T07:40:49.382Z,12.59
2023-04-27T07:41:49.400Z,12.68
2023-04-27T07:42:49.363Z,12.67
2023-04-27T07:43:49.347Z,12.68
2023-04-27T07:44:49.364Z,12.67
2023-04-27T07:45:54.379Z,12.86
2023-04-27T07:46:49.535Z,12.85
2023-04-27T07:47:49.385Z,12.83
2023-04-27T07:48:49.286Z,12.90
2023-04-27T07:49:49.287Z,13.03
2023-04-27T07:50:49.269Z,13.00
2023-04-27T07:51:49.256Z,12.89
2023-04-27T07:52:49.249Z,13.05
2023-04-27T07:53:49.263Z,13.08
2023-04-27T07:54:49.229Z,13.11
2023-04-27T07:55:49.209Z,13.30
2023-04-27T07:56:54.230Z,13.22
2023-04-27T07:57:49.198Z,13.15
2023-04-27T07:58:49.187Z,13.22
2023-04-27T07:59:49.182Z,13.49
2023-04-27T08:00:49.188Z,13.82
2023-04-27T08:01:49.213Z,13.89
2023-04-27T08:02:49.272Z,13.92
2023-04-27T08:03:49.445Z,13.91
2023-04-27T08:04:49.814Z,13.97
2023-04-27T08:05:49.446Z,14.14
2023-04-27T08:06:49.744Z,14.15
2023-04-27T08:07:54.575Z,14.06
2023-04-27T08:08:49.077Z,13.96
2023-04-27T08:09:49.060Z,13.99
2023-04-27T08:10:49.054Z,14.06
2023-04-27T08:11:49.054Z,14.17
2023-04-27T08:12:49.020Z,14.32
2023-04-27T08:13:49.010Z,14.43
2023-04-27T08:14:49.014Z,14.52
2023-04-27T08:15:49.024Z,14.69
2023-04-27T08:16:49.065Z,14.84
2023-04-27T08:17:49.045Z,14.95
2023-04-27T08:18:53.983Z,14.92
2023-04-27T08:19:48.941Z,15.13
2023-04-27T08:20:48.940Z,15.19
2023-04-27T08:21:48.917Z,15.32
2023-04-27T08:22:48.909Z,15.02
2023-04-27T08:23:48.932Z,15.06
2023-04-27T08:24:48.891Z,15.14
2023-04-27T08:25:48.884Z,15.11
2023-04-27T08:26:48.865Z,15.03
2023-04-27T08:27:48.887Z,15.11
2023-04-27T08:28:48.852Z,15.28
2023-04-27T08:29:53.876Z,15.51
2023-04-27T08:30:48.828Z,15.65
2023-04-27T08:31:48.971Z,15.60
2023-04-27T08:32:48.901Z,15.72
2023-04-27T08:33:48.799Z,15.94
2023-04-27T08:34:48.779Z,15.93
2023-04-27T08:35:48.786Z,15.97
2023-04-27T08:36:48.751Z,15.65
2023-04-27T08:37:48.738Z,15.25
2023-04-27T08:38:48.755Z,14.88
2023-04-27T08:39:48.721Z,14.83
2023-04-27T08:40:53.738Z,14.95
2023-04-27T08:41:48.722Z,15.11
2023-04-27T08:42:48.683Z,15.28
2023-04-27T08:43:48.696Z,15.49
2023-04-27T08:44:48.665Z,15.68
2023-04-27T08:45:48.652Z,15.53
2023-04-27T08:46:48.686Z,15.44
2023-04-27T08:47:48.688Z,15.51
2023-04-27T08:48:48.646Z,15.68
2023-04-27T08:49:48.625Z,15.72
2023-04-27T08:50:48.598Z,15.89
2023-04-27T08:51:53.610Z,16.09
2023-04-27T08:52:48.578Z,16.30
2023-04-27T08:53:48.590Z,16.39
2023-04-27T08:54:48.560Z,16.30
2023-04-27T08:55:48.548Z,15.86
2023-04-27T08:56:48.544Z,15.50
2023-04-27T08:57:48.524Z,15.38
2023-04-27T08:58:48.507Z,15.28
2023-04-27T08:59:48.533Z,15.47
2023-04-27T09:00:49.754Z,15.93
2023-04-27T09:01:48.974Z,16.09
2023-04-27T09:02:53.656Z,15.71
2023-04-27T09:03:48.682Z,15.82
2023-04-27T09:04:48.616Z,15.87
2023-04-27T09:06:03.042Z,15.93
2023-04-27T09:06:48.426Z,16.11
2023-04-27T09:07:48.411Z,16.28
2023-04-27T09:08:48.422Z,16.33
2023-04-27T09:09:48.388Z,16.45
2023-04-27T09:10:48.374Z,16.38
2023-04-27T09:11:48.400Z,16.21
2023-04-27T09:12:48.352Z,16.28
2023-04-27T09:13:53.379Z,16.38
2023-04-27T09:14:48.330Z,16.39
2023-04-27T09:15:48.767Z,16.50
2023-04-27T09:16:48.335Z,16.39
2023-04-27T09:17:48.380Z,16.56
2023-04-27T09:18:48.294Z,16.68
2023-04-27T09:19:48.276Z,16.67
2023-04-27T09:20:48.289Z,16.73
2023-04-27T09:21:48.262Z,16.73
2023-04-27T09:22:48.242Z,16.75
2023-04-27T09:23:48.272Z,16.83
2023-04-27T09:24:53.258Z,16.97
2023-04-27T09:25:48.213Z,17.08
2023-04-27T09:26:48.200Z,17.19
2023-04-27T09:27:48.188Z,17.07
2023-04-27T09:28:48.196Z,16.76
2023-04-27T09:29:48.201Z,16.75
2023-04-27T09:30:48.152Z,16.88
2023-04-27T09:31:48.182Z,17.11
2023-04-27T09:32:48.142Z,17.37
2023-04-27T09:33:48.129Z,17.41
2023-04-27T09:34:48.161Z,17.54
2023-04-27T09:35:53.172Z,17.90
2023-04-27T09:36:48.091Z,17.95
2023-04-27T09:37:48.080Z,17.96
2023-04-27T09:38:48.072Z,17.99
2023-04-27T09:39:48.060Z,17.70
2023-04-27T09:40:48.045Z,17.82
2023-04-27T09:41:48.060Z,17.77
2023-04-27T09:42:48.020Z,17.15
2023-04-27T09:43:48.018Z,16.91
2023-04-27T09:44:48.011Z,16.97
2023-04-27T09:45:48.009Z,16.93
2023-04-27T09:46:53.011Z,16.93
2023-04-27T09:47:48.046Z,17.01
2023-04-27T09:48:47.980Z,17.06
2023-04-27T09:49:47.947Z,17.15
2023-04-27T09:50:47.932Z,17.19
2023-04-27T09:51:47.948Z,17.43
2023-04-27T09:52:47.948Z,17.46
2023-04-27T09:53:47.903Z,17.56
2023-04-27T09:54:47.885Z,17.59
2023-04-27T09:55:49.487Z,17.56
2023-04-27T09:56:47.861Z,17.93
2023-04-27T09:57:52.881Z,18.20
2023-04-27T09:58:47.888Z,18.41
2023-04-27T09:59:47.837Z,18.36
2023-04-27T10:00:47.849Z,18.47
2023-04-27T10:01:47.884Z,18.33
2023-04-27T10:02:53.281Z,18.00
2023-04-27T10:03:47.971Z,17.74
2023-04-27T10:04:47.851Z,17.77
2023-04-27T10:05:47.762Z,17.97
2023-04-27T10:06:47.751Z,18.10
2023-04-27T10:07:47.798Z,18.39
2023-04-27T10:08:52.756Z,18.44
2023-04-27T10:09:47.728Z,18.55
2023-04-27T10:10:47.797Z,18.51
2023-04-27T10:11:47.696Z,18.55
2023-04-27T10:12:47.682Z,18.52
2023-04-27T10:13:47.678Z,18.48
2023-04-27T10:14:47.672Z,18.52
2023-04-27T10:15:47.652Z,18.55
2023-04-27T10:16:47.701Z,18.63
2023-04-27T10:17:47.664Z,18.66
2023-04-27T10:18:47.621Z,18.62
2023-04-27T10:19:54.068Z,18.66
2023-04-27T10:20:47.596Z,18.78
2023-04-27T10:21:47.595Z,18.69
2023-04-27T10:22:47.657Z,18.08
2023-04-27T10:23:47.604Z,17.74
2023-04-27T10:24:47.566Z,17.92
2023-04-27T10:25:47.555Z,17.90
2023-04-27T10:26:47.532Z,17.89
2023-04-27T10:27:47.526Z,18.10
2023-04-27T10:28:47.554Z,18.23
2023-04-27T10:29:47.531Z,18.45
2023-04-27T10:30:52.527Z,18.60
2023-04-27T10:31:47.478Z,18.62
2023-04-27T10:32:47.556Z,18.72
2023-04-27T10:33:47.465Z,18.95
2023-04-27T10:34:47.529Z,19.00
2023-04-27T10:35:47.452Z,19.28
2023-04-27T10:36:47.422Z,19.33
2023-04-27T10:37:47.416Z,19.44
2023-04-27T10:38:47.408Z,19.43
2023-04-27T10:39:49.436Z,19.47
2023-04-27T10:40:47.443Z,19.31
2023-04-27T10:41:52.400Z,18.95
2023-04-27T10:42:47.358Z,18.81
2023-04-27T10:43:47.349Z,18.65
2023-04-27T10:44:47.345Z,18.91
2023-04-27T10:45:47.414Z,19.13
2023-04-27T10:46:47.360Z,19.18
2023-04-27T10:47:47.360Z,19.11
2023-04-27T10:48:47.292Z,18.67
2023-04-27T10:49:47.297Z,18.63
2023-04-27T10:50:47.281Z,18.63
2023-04-27T10:51:47.262Z,18.82
2023-04-27T10:52:52.306Z,18.99
2023-04-27T10:53:47.236Z,19.11
2023-04-27T10:54:47.241Z,19.02
2023-04-27T10:55:47.250Z,18.73
2023-04-27T10:56:47.207Z,18.15
2023-04-27T10:57:47.193Z,18.11
2023-04-27T10:58:49.280Z,18.11
2023-04-27T10:59:47.195Z,18.02
2023-04-27T11:00:47.164Z,18.18
2023-04-27T11:01:47.199Z,18.35
2023-04-27T11:02:47.180Z,18.58
2023-04-27T11:03:52.227Z,18.82
2023-04-27T11:04:47.262Z,18.98
2023-04-27T11:05:47.117Z,19.14
2023-04-27T11:06:47.131Z,19.18
2023-04-27T11:07:47.081Z,19.33
2023-04-27T11:08:47.064Z,19.32
2023-04-27T11:09:47.071Z,19.04
2023-04-27T11:10:47.130Z,18.99
2023-04-27T11:11:47.051Z,19.10
2023-04-27T11:12:47.074Z,19.04
2023-04-27T11:13:47.010Z,18.75
2023-04-27T11:14:52.028Z,18.84
2023-04-27T11:15:47.065Z,19.16
2023-04-27T11:16:47.141Z,19.29
2023-04-27T11:17:46.983Z,19.11
2023-04-27T11:18:46.959Z,19.16
2023-04-27T11:19:46.943Z,18.78
2023-04-27T11:20:46.953Z,18.33
2023-04-27T11:21:46.928Z,18.14
2023-04-27T11:22:46.987Z,18.14
2023-04-27T11:23:46.900Z,18.05
2023-04-27T11:24:46.890Z,18.12
2023-04-27T11:25:51.930Z,18.20
2023-04-27T11:26:46.865Z,18.18
2023-04-27T11:27:46.877Z,18.17
2023-04-27T11:28:46.896Z,18.11
2023-04-27T11:29:46.833Z,18.20
2023-04-27T11:30:46.827Z,18.07
2023-04-27T11:31:46.854Z,17.96
2023-04-27T11:32:46.870Z,18.15
2023-04-27T11:33:46.790Z,18.35
2023-04-27T11:34:46.796Z,18.54
2023-04-27T11:35:46.787Z,18.30
2023-04-27T11:36:51.776Z,18.14
2023-04-27T11:37:46.741Z,18.25
2023-04-27T11:38:46.789Z,18.36
2023-04-27T11:39:46.812Z,18.75
2023-04-27T11:40:46.755Z,19.02
2023-04-27T11:41:46.696Z,19.28
2023-04-27T11:42:46.689Z,19.16
2023-04-27T11:43:46.698Z,19.14
2023-04-27T11:44:46.666Z,19.37
2023-04-27T11:45:46.662Z,19.31
2023-04-27T11:46:46.729Z,19.56
2023-04-27T11:47:51.692Z,19.65
2023-04-27T11:48:46.618Z,19.80
2023-04-27T11:49:46.611Z,19.84
2023-04-27T11:50:46.628Z,19.77
2023-04-27T11:51:46.590Z,19.80
2023-04-27T11:52:46.590Z,20.02
2023-04-27T11:53:46.566Z,20.16
2023-04-27T11:54:46.555Z,19.88
2023-04-27T11:55:46.553Z,19.98
2023-04-27T11:56:46.530Z,20.18
2023-04-27T11:57:46.534Z,20.39
2023-04-27T11:58:51.571Z,20.62
2023-04-27T11:59:46.502Z,20.85
2023-04-27T12:00:46.496Z,20.92
2023-04-27T12:01:46.494Z,20.98
2023-04-27T12:02:46.569Z,20.79
2023-04-27T12:03:46.605Z,20.50
2023-04-27T12:04:46.733Z,20.79
2023-04-27T12:05:46.523Z,21.17
2023-04-27T12:06:46.420Z,21.38
2023-04-27T12:07:46.409Z,21.44
2023-04-27T12:08:46.398Z,21.59
2023-04-27T12:09:51.415Z,21.72
2023-04-27T12:10:46.564Z,21.62
2023-04-27T12:11:46.401Z,21.68
2023-04-27T12:12:46.353Z,21.84
2023-04-27T12:13:46.341Z,21.46
2023-04-27T12:14:46.358Z,21.29
2023-04-27T12:15:46.342Z,20.84
2023-04-27T12:16:46.445Z,20.67
2023-04-27T12:17:46.398Z,20.69
2023-04-27T12:18:46.306Z,20.52
2023-04-27T12:19:46.276Z,20.48
2023-04-27T12:20:46.280Z,20.18
2023-04-27T12:21:46.263Z,20.08
2023-04-27T12:22:51.408Z,19.73
2023-04-27T12:23:46.259Z,19.41
2023-04-27T12:24:46.250Z,19.50
2023-04-27T12:25:46.219Z,19.56
2023-04-27T12:26:46.195Z,19.55
2023-04-27T12:27:46.193Z,19.36
2023-04-27T12:28:46.241Z,19.46
2023-04-27T12:29:46.193Z,19.81
2023-04-27T12:30:46.209Z,20.23
2023-04-27T12:31:46.164Z,20.51
2023-04-27T12:32:46.168Z,20.73
2023-04-27T12:33:46.130Z,20.72
2023-04-27T12:34:46.225Z,20.89
2023-04-27T12:35:51.124Z,20.79
2023-04-27T12:36:46.113Z,20.55
2023-04-27T12:37:46.106Z,20.32
2023-04-27T12:38:46.065Z,20.17
2023-04-27T12:39:46.077Z,20.26
2023-04-27T12:40:46.157Z,20.36
2023-04-27T12:41:46.041Z,20.51
2023-04-27T12:42:46.025Z,20.51
2023-04-27T12:43:46.020Z,20.43
2023-04-27T12:44:46.008Z,20.48
2023-04-27T12:45:45.986Z,20.33
2023-04-27T12:46:46.072Z,19.81
2023-04-27T12:48:01.026Z,19.41
2023-04-27T12:48:51.077Z,19.23
2023-04-27T12:49:45.965Z,19.18
2023-04-27T12:50:45.939Z,19.13
2023-04-27T12:51:45.922Z,18.99
2023-04-27T12:52:45.914Z,19.06
2023-04-27T12:53:45.992Z,19.06
2023-04-27T12:54:45.890Z,19.06
2023-04-27T12:55:45.896Z,18.99
2023-04-27T12:56:45.869Z,18.99
2023-04-27T12:57:45.861Z,19.02
2023-04-27T12:58:45.846Z,19.13
2023-04-27T12:59:50.910Z,19.13
2023-04-27T13:00:45.821Z,19.11
2023-04-27T13:01:45.980Z,18.95
2023-04-27T13:02:45.975Z,18.84
2023-04-27T13:03:45.895Z,18.58
2023-04-27T13:04:45.862Z,18.23
2023-04-27T13:05:45.807Z,18.37
2023-04-27T13:06:45.759Z,18.35
2023-04-27T13:07:45.743Z,18.45
2023-04-27T13:08:45.735Z,18.39
2023-04-27T13:09:45.719Z,18.39
2023-04-27T13:10:50.767Z,18.44
2023-04-27T13:11:45.797Z,18.45
2023-04-27T13:12:45.701Z,18.52
2023-04-27T13:13:45.675Z,18.54
2023-04-27T13:14:45.665Z,18.55
2023-04-27T13:15:45.686Z,18.36
2023-04-27T13:16:45.650Z,18.41
2023-04-27T13:17:45.677Z,18.51
2023-04-27T13:18:45.638Z,18.45
2023-04-27T13:19:45.622Z,18.52
2023-04-27T13:20:45.608Z,18.55
2023-04-27T13:21:50.615Z,18.70
2023-04-27T13:22:45.579Z,18.78
2023-04-27T13:23:45.579Z,18.78
2023-04-27T13:24:45.553Z,18.90
2023-04-27T13:25:45.549Z,18.87
2023-04-27T13:26:45.534Z,18.92
2023-04-27T13:27:45.521Z,18.90
2023-04-27T13:28:45.511Z,18.98
2023-04-27T13:29:45.554Z,18.81
2023-04-27T13:30:45.487Z,18.84
2023-04-27T13:31:45.498Z,18.80
2023-04-27T13:32:50.534Z,18.88
2023-04-27T13:33:45.453Z,18.91
2023-04-27T13:34:45.464Z,18.95
2023-04-27T13:35:45.490Z,18.95
2023-04-27T13:36:45.948Z,18.98
2023-04-27T13:37:45.408Z,19.00
2023-04-27T13:38:45.400Z,19.10
2023-04-27T13:39:45.399Z,18.92
2023-04-27T13:40:45.386Z,18.88
2023-04-27T13:41:45.390Z,18.87
2023-04-27T13:42:45.352Z,18.82
2023-04-27T13:43:50.369Z,18.84
2023-04-27T13:44:45.346Z,18.95
2023-04-27T13:45:45.330Z,18.91
2023-04-27T13:46:45.337Z,18.82
2023-04-27T13:47:45.417Z,18.48
2023-04-27T13:48:45.285Z,18.48
2023-04-27T13:49:45.274Z,18.42
2023-04-27T13:50:45.337Z,18.48
2023-04-27T13:51:45.254Z,18.41
2023-04-27T13:52:45.242Z,18.47
2023-04-27T13:53:45.254Z,18.33
2023-04-27T13:54:50.242Z,18.37
2023-04-27T13:55:45.215Z,18.32
2023-04-27T13:56:45.197Z,18.36
2023-04-27T13:57:45.183Z,18.30
2023-04-27T13:58:45.173Z,18.21
2023-04-27T13:59:45.199Z,18.05
2023-04-27T14:00:45.172Z,18.17
2023-04-27T14:01:45.146Z,18.23
2023-04-27T14:02:45.178Z,18.25
2023-04-27T14:03:45.280Z,18.23
2023-04-27T14:04:45.198Z,18.11
2023-04-27T14:05:50.165Z,18.14
2023-04-27T14:06:45.088Z,18.23
2023-04-27T14:07:45.072Z,18.25
2023-04-27T14:08:45.073Z,18.29
2023-04-27T14:09:45.056Z,18.27
2023-04-27T14:10:45.059Z,18.25
2023-04-27T14:11:55.710Z,18.36
2023-04-27T14:12:46.017Z,18.33
2023-04-27T14:13:45.009Z,18.39
2023-04-27T14:14:45.004Z,18.42
2023-04-27T14:15:44.991Z,18.48
2023-04-27T14:16:50.019Z,18.50
2023-04-27T14:17:45.005Z,18.52
2023-04-27T14:18:44.982Z,18.52
2023-04-27T14:19:44.942Z,18.62
2023-04-27T14:20:44.939Z,18.50
2023-04-27T14:21:44.946Z,18.52
2023-04-27T14:22:44.909Z,18.48
2023-04-27T14:23:44.919Z,18.50
2023-04-27T14:24:44.887Z,18.42
2023-04-27T14:25:44.917Z,18.52
2023-04-27T14:26:44.862Z,18.52
2023-04-27T14:27:49.899Z,18.57
2023-04-27T14:28:44.839Z,18.70
2023-04-27T14:29:44.850Z,18.80
2023-04-27T14:30:44.833Z,18.80
2023-04-27T14:31:44.866Z,18.94
2023-04-27T14:32:44.841Z,18.84
2023-04-27T14:33:44.788Z,18.80
2023-04-27T14:34:44.773Z,18.75
2023-04-27T14:35:44.792Z,18.52
2023-04-27T14:36:44.749Z,18.48
2023-04-27T14:37:44.766Z,18.44
2023-04-27T14:38:49.750Z,18.47
2023-04-27T14:39:45.527Z,18.48
2023-04-27T14:40:44.714Z,18.57
2023-04-27T14:41:44.712Z,18.69
2023-04-27T14:42:44.686Z,18.75
2023-04-27T14:43:44.674Z,18.73
2023-04-27T14:44:44.666Z,18.82
2023-04-27T14:45:52.901Z,18.78
2023-04-27T14:46:44.650Z,18.76
2023-04-27T14:47:44.804Z,18.81
2023-04-27T14:48:44.616Z,18.76
2023-04-27T14:49:49.628Z,18.72
2023-04-27T14:50:44.603Z,18.76
2023-04-27T14:51:44.580Z,18.80
2023-04-27T14:52:44.576Z,18.62
2023-04-27T14:53:44.581Z,18.60
2023-04-27T14:54:44.563Z,18.62
2023-04-27T14:55:44.557Z,18.55
2023-04-27T14:56:44.533Z,18.65
2023-04-27T14:57:44.511Z,18.66
2023-04-27T14:58:44.509Z,18.60
2023-04-27T14:59:44.517Z,18.58
2023-04-27T15:00:49.521Z,18.62
2023-04-27T15:01:44.487Z,18.52
2023-04-27T15:02:44.590Z,18.50
2023-04-27T15:03:44.630Z,18.57
2023-04-27T15:04:44.490Z,18.52
2023-04-27T15:05:44.439Z,18.35
2023-04-27T15:06:44.420Z,18.17
2023-04-27T15:07:44.399Z,18.00
2023-04-27T15:08:44.393Z,17.97
2023-04-27T15:09:44.403Z,18.07
2023-04-27T15:10:44.372Z,18.07
2023-04-27T15:11:49.413Z,18.11
2023-04-27T15:12:44.382Z,18.15
2023-04-27T15:13:44.334Z,18.05
2023-04-27T15:14:44.321Z,18.05
2023-04-27T15:15:44.362Z,18.11
2023-04-27T15:16:44.309Z,18.20
2023-04-27T15:17:44.354Z,18.18
2023-04-27T15:18:44.286Z,18.23
2023-04-27T15:19:44.264Z,18.32
2023-04-27T15:20:44.733Z,18.33
2023-04-27T15:21:44.251Z,18.42
2023-04-27T15:22:49.256Z,18.48
2023-04-27T15:23:44.245Z,18.42
2023-04-27T15:24:44.218Z,18.37
2023-04-27T15:25:44.225Z,18.39
2023-04-27T15:26:44.199Z,18.21
2023-04-27T15:27:44.174Z,18.11
2023-04-27T15:28:44.166Z,18.11
2023-04-27T15:29:44.182Z,18.02
2023-04-27T15:30:44.142Z,18.10
2023-04-27T15:31:44.168Z,18.05
2023-04-27T15:32:44.149Z,18.12
2023-04-27T15:33:49.153Z,18.18
2023-04-27T15:34:44.103Z,18.18
2023-04-27T15:35:44.114Z,18.18
2023-04-27T15:36:44.077Z,18.26
2023-04-27T15:37:44.073Z,18.18
2023-04-27T15:38:44.061Z,18.32
2023-04-27T15:39:44.046Z,18.36
2023-04-27T15:40:44.044Z,18.37
2023-04-27T15:41:44.054Z,18.30
2023-04-27T15:42:44.010Z,18.29
2023-04-27T15:43:43.996Z,18.27
2023-04-27T15:44:49.008Z,18.20
2023-04-27T15:45:43.985Z,18.23
2023-04-27T15:46:43.993Z,18.26
2023-04-27T15:47:44.019Z,18.30
2023-04-27T15:48:43.947Z,18.32
2023-04-27T15:49:56.145Z,18.35
2023-04-27T15:50:43.940Z,18.26
2023-04-27T15:51:43.918Z,18.33
2023-04-27T15:52:43.901Z,18.29
2023-04-27T15:53:43.922Z,18.30
2023-04-27T15:54:43.880Z,18.27
2023-04-27T15:55:48.898Z,18.26
2023-04-27T15:56:43.861Z,18.30
2023-04-27T15:57:43.909Z,18.37
2023-04-27T15:58:43.837Z,18.35
2023-04-27T15:59:43.845Z,18.30
2023-04-27T16:00:43.839Z,18.26
2023-04-27T16:01:43.839Z,18.23
2023-04-27T16:02:44.049Z,18.36
2023-04-27T16:03:44.023Z,18.27
2023-04-27T16:04:43.767Z,18.29
2023-04-27T16:05:43.771Z,18.25
2023-04-27T16:06:48.779Z,18.15
2023-04-27T16:07:43.732Z,18.23
2023-04-27T16:08:43.721Z,18.18
2023-04-27T16:09:43.751Z,18.11
2023-04-27T16:10:43.698Z,18.07
2023-04-27T16:11:43.715Z,18.10
2023-04-27T16:12:43.679Z,18.15
2023-04-27T16:13:43.700Z,18.11
2023-04-27T16:14:43.654Z,18.15
2023-04-27T16:15:43.642Z,18.18
2023-04-27T16:16:43.685Z,18.25
2023-04-27T16:17:48.792Z,18.23
2023-04-27T16:18:43.615Z,18.32
2023-04-27T16:19:43.598Z,18.29
2023-04-27T16:20:43.603Z,18.29
2023-04-27T16:21:43.578Z,18.26
2023-04-27T16:22:43.729Z,18.32
2023-04-27T16:23:43.572Z,18.32
2023-04-27T16:24:43.545Z,18.29
2023-04-27T16:25:43.546Z,18.37
2023-04-27T16:26:43.530Z,18.36
2023-04-27T16:27:43.509Z,18.41
2023-04-27T16:28:48.560Z,18.32
2023-04-27T16:29:43.518Z,18.44
2023-04-27T16:30:43.492Z,18.36
2023-04-27T16:31:43.503Z,18.42
2023-04-27T16:32:43.548Z,18.44
2023-04-27T16:33:43.463Z,18.44
2023-04-27T16:34:43.561Z,18.25
2023-04-27T16:35:43.456Z,18.07
2023-04-27T16:36:43.427Z,18.03
2023-04-27T16:37:43.403Z,17.96
2023-04-27T16:38:43.394Z,17.99
2023-04-27T16:39:48.416Z,17.96
2023-04-27T16:40:43.374Z,18.11
2023-04-27T16:41:43.389Z,18.12
2023-04-27T16:42:43.359Z,18.00
2023-04-27T16:43:43.336Z,17.99
2023-04-27T16:44:43.403Z,17.86
2023-04-27T16:45:43.427Z,17.93
2023-04-27T16:46:43.418Z,17.84
2023-04-27T16:47:43.351Z,17.81
2023-04-27T16:48:43.287Z,17.89
2023-04-27T16:49:43.325Z,17.86
2023-04-27T16:50:48.291Z,17.87
2023-04-27T16:51:43.333Z,17.90
2023-04-27T16:52:43.236Z,17.93
2023-04-27T16:53:43.264Z,17.82
2023-04-27T16:54:43.237Z,17.87
2023-04-27T16:55:43.202Z,17.89
2023-04-27T16:56:43.198Z,17.92
2023-04-27T16:57:43.179Z,17.72
2023-04-27T16:58:43.166Z,17.74
2023-04-27T16:59:43.177Z,17.78
2023-04-27T17:00:43.173Z,17.71
2023-04-27T17:01:48.180Z,17.59
2023-04-27T17:02:44.054Z,17.62
2023-04-27T17:03:43.251Z,17.63
2023-04-27T17:04:43.191Z,17.66
2023-04-27T17:05:43.128Z,17.62
2023-04-27T17:06:43.078Z,17.58
2023-04-27T17:07:43.087Z,17.63
2023-04-27T17:08:43.066Z,17.56
2023-04-27T17:09:43.051Z,17.55
2023-04-27T17:10:43.043Z,17.63
2023-04-27T17:11:43.047Z,17.59
2023-04-27T17:12:48.042Z,17.58
2023-04-27T17:13:43.009Z,17.62
2023-04-27T17:14:42.991Z,17.58
2023-04-27T17:15:43.005Z,17.64
2023-04-27T17:16:42.987Z,17.56
2023-04-27T17:17:43.023Z,17.58
2023-04-27T17:18:42.943Z,17.58
2023-04-27T17:19:42.938Z,17.58
2023-04-27T17:20:42.951Z,17.58
2023-04-27T17:21:42.914Z,17.51
2023-04-27T17:22:42.897Z,17.51
2023-04-27T17:23:47.938Z,17.51
2023-04-27T17:24:42.876Z,17.48
2023-04-27T17:25:42.875Z,17.48
2023-04-27T17:26:42.853Z,17.51
2023-04-27T17:27:42.857Z,17.49
2023-04-27T17:28:42.829Z,17.51
2023-04-27T17:29:42.848Z,17.56
2023-04-27T17:30:42.831Z,17.46
2023-04-27T17:31:42.845Z,17.44
2023-04-27T17:32:42.822Z,17.40
2023-04-27T17:33:42.779Z,17.41
2023-04-27T17:34:47.808Z,17.37
2023-04-27T17:35:42.790Z,17.36
2023-04-27T17:36:42.752Z,17.43
2023-04-27T17:37:42.742Z,17.36
2023-04-27T17:38:42.728Z,17.36
2023-04-27T17:39:42.713Z,17.34
2023-04-27T17:40:42.710Z,17.36
2023-04-27T17:41:42.717Z,17.38
2023-04-27T17:42:42.680Z,17.31
2023-04-27T17:43:42.672Z,17.37
2023-04-27T17:44:42.663Z,17.36